createdAt,value
2019-03-20T00:01:50.976Z,86.55
2019-03-20T00:04:30.548Z,87.08
2019-03-20T00:07:02.232Z,87.73
2019-03-20T00:09:37.329Z,87.98
2019-03-20T00:12:09.000Z,87.92
2019-03-20T00:14:45.116Z,88.20
2019-03-20T00:17:16.886Z,88.43
2019-03-20T00:19:58.731Z,89.15
2019-03-20T00:22:30.501Z,89.62
2019-03-20T00:25:09.638Z,89.62
2019-03-20T00:27:41.281Z,89.47
2019-03-20T00:30:21.109Z,89.24
2019-03-20T00:32:52.839Z,89.08
2019-03-20T00:35:27.668Z,89.20
2019-03-20T00:37:59.335Z,89.55
2019-03-20T00:40:38.921Z,89.73
2019-03-20T00:43:10.628Z,89.94
2019-03-20T00:45:47.046Z,90.12
2019-03-20T00:48:19.237Z,89.75
2019-03-20T00:50:58.165Z,89.58
2019-03-20T00:53:29.706Z,89.68
2019-03-20T00:56:19.196Z,89.74
2019-03-20T00:58:50.890Z,89.74
2019-03-20T01:01:22.568Z,89.67
2019-03-20T01:03:54.298Z,89.54
2019-03-20T01:06:33.263Z,89.37
2019-03-20T01:09:05.313Z,89.24
2019-03-20T01:11:43.954Z,88.67
2019-03-20T01:14:15.869Z,88.44
2019-03-20T01:16:57.805Z,88.64
2019-03-20T01:19:29.522Z,88.46
2019-03-20T01:22:04.821Z,88.08
2019-03-20T01:24:36.626Z,88.31
2019-03-20T01:27:16.084Z,88.51
2019-03-20T01:29:47.676Z,88.85
2019-03-20T01:32:28.698Z,89.02
2019-03-20T01:35:00.485Z,89.23
2019-03-20T01:37:32.402Z,89.51
2019-03-20T01:40:04.067Z,89.51
2019-03-20T01:42:53.438Z,89.83
2019-03-20T01:45:25.213Z,89.57
2019-03-20T01:47:57.062Z,89.42
2019-03-20T01:50:29.040Z,89.49
2019-03-20T01:53:06.999Z,88.89
2019-03-20T01:55:38.866Z,88.53
2019-03-20T01:58:19.874Z,88.02
2019-03-20T02:00:51.505Z,87.68
2019-03-20T02:03:30.621Z,86.96
2019-03-20T02:06:02.378Z,86.39
2019-03-20T02:08:36.999Z,85.82
2019-03-20T02:11:08.571Z,85.14
2019-03-20T02:13:44.589Z,85.05
2019-03-20T02:16:16.525Z,84.73
2019-03-20T02:18:52.415Z,84.59
2019-03-20T02:21:24.484Z,84.55
2019-03-20T02:23:58.999Z,83.91
2019-03-20T02:26:31.068Z,83.99
2019-03-20T02:29:02.972Z,83.71
2019-03-20T02:31:34.800Z,82.85
2019-03-20T02:34:06.581Z,83.24
2019-03-20T02:36:38.231Z,83.95
2019-03-20T02:39:10.491Z,84.57
2019-03-20T02:41:42.190Z,85.59
2019-03-20T02:44:13.921Z,85.56
2019-03-20T02:46:45.853Z,85.46
2019-03-20T02:49:17.689Z,85.41
2019-03-20T02:51:49.361Z,86.00
2019-03-20T02:54:20.875Z,85.81
2019-03-20T02:56:52.710Z,85.67
2019-03-20T02:59:24.897Z,85.84
2019-03-20T03:01:56.617Z,85.78
2019-03-20T03:04:29.308Z,85.62
2019-03-20T03:07:00.980Z,85.24
2019-03-20T03:09:33.010Z,85.13
2019-03-20T03:12:04.829Z,85.18
2019-03-20T03:14:36.589Z,84.49
2019-03-20T03:17:08.297Z,84.06
2019-03-20T03:19:39.992Z,83.91
2019-03-20T03:22:11.833Z,84.51
2019-03-20T03:24:43.896Z,83.86
2019-03-20T03:27:15.628Z,83.78
2019-03-20T03:29:47.580Z,83.84
2019-03-20T03:32:19.141Z,84.40
2019-03-20T03:34:50.891Z,84.47
2019-03-20T03:37:22.493Z,84.22
2019-03-20T03:39:54.598Z,83.94
2019-03-20T03:42:29.742Z,83.90
2019-03-20T03:45:01.510Z,84.12
2019-03-20T03:47:33.200Z,84.48
2019-03-20T03:50:05.106Z,84.94
2019-03-20T03:52:36.769Z,84.89
2019-03-20T03:55:08.589Z,84.95
2019-03-20T03:57:40.601Z,85.09
2019-03-20T04:00:14.212Z,85.14
2019-03-20T04:02:45.949Z,85.55
2019-03-20T04:05:17.686Z,85.70
2019-03-20T04:07:49.464Z,85.39
2019-03-20T04:10:21.357Z,85.71
2019-03-20T04:12:53.103Z,86.05
2019-03-20T04:15:25.031Z,86.16
2019-03-20T04:17:59.504Z,86.43
2019-03-20T04:20:31.213Z,86.66
2019-03-20T04:23:09.110Z,86.27
2019-03-20T04:25:40.675Z,86.45
2019-03-20T04:28:12.507Z,86.52
2019-03-20T04:30:44.262Z,85.96
2019-03-20T04:33:23.010Z,86.40
2019-03-20T04:35:55.081Z,86.50
2019-03-20T04:38:33.140Z,86.49
2019-03-20T04:41:05.036Z,86.49
2019-03-20T04:43:45.863Z,86.45
2019-03-20T04:46:17.964Z,86.30
2019-03-20T04:48:52.455Z,86.41
2019-03-20T04:51:24.168Z,86.38
2019-03-20T04:54:06.249Z,86.30
2019-03-20T04:56:33.327Z,86.66
2019-03-20T04:59:24.071Z,87.04
2019-03-20T05:02:01.731Z,86.91
2019-03-20T05:04:33.414Z,86.59
2019-03-20T05:07:15.474Z,86.49
2019-03-20T05:09:46.996Z,86.27
2019-03-20T05:12:22.860Z,86.52
2019-03-20T05:14:54.511Z,86.53
2019-03-20T05:17:33.843Z,86.48
2019-03-20T05:20:05.889Z,85.58
2019-03-20T05:22:45.635Z,86.09
2019-03-20T05:25:17.497Z,85.66
2019-03-20T05:27:56.909Z,85.83
2019-03-20T05:30:28.663Z,85.91
2019-03-20T05:33:03.491Z,86.28
2019-03-20T05:35:35.398Z,85.58
2019-03-20T05:38:07.271Z,84.91
2019-03-20T05:40:39.069Z,84.21
2019-03-20T05:43:10.791Z,84.24
2019-03-20T05:45:42.550Z,84.20
2019-03-20T05:48:14.222Z,83.76
2019-03-20T05:50:45.846Z,82.92
2019-03-20T05:53:23.702Z,81.77
2019-03-20T05:55:55.589Z,80.73
2019-03-20T05:58:27.446Z,80.63
2019-03-20T06:00:59.071Z,79.88
2019-03-20T06:03:30.802Z,78.92
2019-03-20T06:06:02.545Z,78.43
2019-03-20T06:08:34.480Z,72.79
2019-03-20T06:11:06.271Z,69.23
2019-03-20T06:13:38.128Z,65.96
2019-03-20T06:16:10.092Z,62.96
2019-03-20T06:18:41.850Z,61.77
2019-03-20T06:21:15.175Z,59.32
2019-03-20T06:23:46.940Z,58.21
2019-03-20T06:26:20.031Z,57.71
2019-03-20T06:28:51.835Z,55.92
2019-03-20T06:31:23.525Z,54.07
2019-03-20T06:33:55.277Z,52.96
2019-03-20T06:36:28.461Z,54.90
2019-03-20T06:39:00.404Z,53.12
2019-03-20T06:41:33.678Z,49.94
2019-03-20T06:44:05.449Z,48.02
2019-03-20T06:46:37.973Z,46.36
2019-03-20T06:49:09.636Z,45.27
2019-03-20T06:51:42.215Z,43.32
2019-03-20T06:54:14.407Z,41.55
2019-03-20T06:56:46.272Z,41.66
2019-03-20T07:00:35.922Z,41.32
2019-03-20T07:03:12.381Z,40.83
2019-03-20T07:06:35.758Z,41.64
2019-03-20T07:09:41.191Z,41.33
2019-03-20T07:12:14.451Z,39.17
2019-03-20T07:14:46.122Z,39.08
2019-03-20T07:17:18.030Z,38.55
2019-03-20T07:19:49.825Z,37.64
2019-03-20T07:22:22.015Z,37.18
2019-03-20T07:24:55.215Z,36.79
2019-03-20T07:27:26.900Z,37.67
2019-03-20T07:30:01.145Z,38.35
2019-03-20T07:32:32.855Z,37.03
2019-03-20T07:35:04.829Z,35.66
2019-03-20T07:37:36.458Z,36.90
2019-03-20T07:40:09.344Z,37.17
2019-03-20T07:42:41.012Z,35.67
2019-03-20T07:45:13.020Z,36.72
2019-03-20T07:47:44.661Z,35.96
2019-03-20T07:50:16.578Z,35.07
2019-03-20T07:52:48.388Z,34.43
2019-03-20T07:55:20.299Z,33.04
2019-03-20T07:57:55.087Z,31.58
2019-03-20T08:00:27.143Z,31.15
2019-03-20T08:03:05.331Z,33.05
2019-03-20T08:05:36.810Z,35.07
2019-03-20T08:08:12.771Z,32.84
2019-03-20T08:10:44.338Z,32.42
2019-03-20T08:13:25.396Z,31.65
2019-03-20T08:15:57.199Z,30.02
2019-03-20T08:18:35.570Z,32.07
2019-03-20T08:21:07.333Z,32.95
2019-03-20T08:23:42.158Z,35.00
2019-03-20T08:26:13.795Z,36.20
2019-03-20T08:28:52.175Z,36.70
2019-03-20T08:31:25.019Z,37.15
2019-03-20T08:34:12.078Z,39.12
2019-03-20T08:36:45.012Z,40.42
2019-03-20T08:39:20.035Z,40.85
2019-03-20T08:41:52.338Z,41.61
2019-03-20T08:44:27.687Z,42.47
2019-03-20T08:46:59.631Z,44.00
2019-03-20T08:49:34.730Z,44.10
2019-03-20T08:52:07.612Z,44.51
2019-03-20T08:54:42.423Z,44.41
2019-03-20T08:57:18.833Z,44.94
2019-03-20T08:59:58.106Z,44.84
2019-03-20T09:02:30.452Z,42.94
2019-03-20T09:05:11.610Z,41.47
2019-03-20T09:07:47.374Z,40.75
2019-03-20T09:10:21.197Z,41.45
2019-03-20T09:12:53.727Z,42.46
2019-03-20T09:15:29.900Z,42.71
2019-03-20T09:18:01.724Z,42.76
2019-03-20T09:20:35.034Z,41.90
2019-03-20T09:23:07.398Z,40.90
2019-03-20T09:25:43.852Z,41.18
2019-03-20T09:28:15.979Z,41.11
2019-03-20T09:30:51.129Z,38.91
2019-03-20T09:33:22.961Z,36.53
2019-03-20T09:35:59.604Z,37.00
2019-03-20T09:38:42.717Z,34.16
2019-03-20T09:41:17.767Z,30.70
2019-03-20T09:43:50.067Z,27.45
2019-03-20T09:46:26.110Z,25.96
2019-03-20T09:48:58.686Z,26.95
2019-03-20T09:51:42.968Z,28.28
2019-03-20T09:54:14.715Z,26.96
2019-03-20T09:56:49.551Z,25.91
2019-03-20T09:59:22.389Z,26.03
2019-03-20T10:02:02.863Z,25.80
2019-03-20T10:04:35.444Z,26.08
2019-03-20T10:07:07.644Z,25.15
2019-03-20T10:09:40.209Z,24.40
2019-03-20T10:12:21.706Z,23.71
2019-03-20T10:14:54.195Z,24.12
2019-03-20T10:17:32.039Z,23.02
2019-03-20T10:20:03.705Z,23.60
2019-03-20T10:22:41.836Z,23.79
2019-03-20T10:25:17.156Z,24.50
2019-03-20T10:27:49.140Z,23.57
2019-03-20T10:30:25.360Z,23.65
2019-03-20T10:32:57.644Z,25.34
2019-03-20T10:35:29.982Z,25.14
2019-03-20T10:38:12.820Z,27.09
2019-03-20T10:40:45.292Z,26.03
2019-03-20T10:43:21.550Z,25.42
2019-03-20T10:45:53.758Z,25.46
2019-03-20T10:48:34.567Z,25.36
2019-03-20T10:51:06.485Z,25.51
2019-03-20T10:53:41.093Z,25.54
2019-03-20T10:56:13.849Z,24.72
2019-03-20T10:58:48.731Z,24.45
2019-03-20T11:01:20.717Z,25.67
2019-03-20T11:03:56.970Z,25.91
2019-03-20T11:06:30.452Z,25.09
2019-03-20T11:09:19.521Z,24.75
2019-03-20T11:11:51.515Z,24.84
2019-03-20T11:14:23.330Z,24.42
2019-03-20T11:16:55.438Z,24.23
2019-03-20T11:19:33.333Z,23.93
2019-03-20T11:22:05.179Z,25.96
2019-03-20T11:24:44.392Z,25.95
2019-03-20T11:27:16.438Z,25.15
2019-03-20T11:29:51.321Z,25.20
2019-03-20T11:32:24.673Z,24.63
2019-03-20T11:35:08.741Z,25.37
2019-03-20T11:37:40.418Z,25.87
2019-03-20T11:40:16.622Z,25.31
2019-03-20T11:42:50.041Z,24.63
2019-03-20T11:45:24.162Z,24.43
2019-03-20T11:47:56.219Z,23.05
2019-03-20T11:50:39.503Z,22.75
2019-03-20T11:53:15.976Z,22.42
2019-03-20T11:55:47.907Z,23.01
2019-03-20T11:58:22.693Z,22.85
2019-03-20T12:01:13.721Z,22.02
2019-03-20T12:03:45.333Z,22.12
2019-03-20T12:06:17.798Z,22.37
2019-03-20T12:08:49.570Z,21.35
2019-03-20T12:11:21.828Z,21.01
2019-03-20T12:13:55.079Z,21.58
2019-03-20T12:16:27.302Z,21.96
2019-03-20T12:18:59.428Z,22.45
2019-03-20T12:21:41.170Z,22.82
2019-03-20T12:24:13.576Z,22.87
2019-03-20T12:26:46.657Z,22.55
2019-03-20T12:29:18.859Z,23.11
2019-03-20T12:31:55.351Z,23.21
2019-03-20T12:34:28.079Z,24.21
2019-03-20T12:37:05.119Z,23.11
2019-03-20T12:39:38.275Z,22.60
2019-03-20T12:42:17.221Z,23.34
2019-03-20T12:44:49.209Z,23.48
2019-03-20T12:47:27.195Z,26.10
2019-03-20T12:50:00.353Z,26.86
2019-03-20T12:52:45.053Z,27.04
2019-03-20T12:55:17.666Z,27.22
2019-03-20T12:57:56.666Z,27.39
2019-03-20T13:00:29.000Z,27.48
2019-03-20T13:03:04.257Z,27.08
2019-03-20T13:05:37.056Z,26.52
2019-03-20T13:08:16.892Z,27.39
2019-03-20T13:10:49.397Z,26.96
2019-03-20T13:13:21.749Z,27.54
2019-03-20T13:15:53.549Z,28.99
2019-03-20T13:18:29.537Z,28.73
2019-03-20T13:21:02.320Z,28.22
2019-03-20T13:23:43.670Z,29.06
2019-03-20T13:26:15.655Z,29.80
2019-03-20T13:28:51.737Z,30.40
2019-03-20T13:31:26.056Z,30.58
2019-03-20T13:34:06.759Z,30.64
2019-03-20T13:36:39.424Z,29.96
2019-03-20T13:39:14.279Z,30.17
2019-03-20T13:41:46.330Z,29.71
2019-03-20T13:44:21.668Z,30.99
2019-03-20T13:46:53.563Z,30.35
2019-03-20T13:49:31.287Z,31.13
2019-03-20T13:52:03.239Z,31.40
2019-03-20T13:54:44.547Z,31.38
2019-03-20T13:57:16.662Z,31.37
2019-03-20T13:59:57.821Z,30.71
2019-03-20T14:02:30.123Z,30.51
2019-03-20T14:05:02.108Z,30.62
2019-03-20T14:07:34.535Z,30.75
2019-03-20T14:10:10.692Z,30.81
2019-03-20T14:12:42.756Z,31.16
2019-03-20T14:15:15.358Z,31.38
2019-03-20T14:17:47.647Z,31.21
2019-03-20T14:20:27.035Z,31.35
2019-03-20T14:22:56.675Z,31.79
2019-03-20T14:25:30.257Z,32.50
2019-03-20T14:28:03.152Z,32.09
2019-03-20T14:30:35.600Z,32.50
2019-03-20T14:33:09.397Z,32.52
2019-03-20T14:35:41.681Z,32.20
2019-03-20T14:38:15.285Z,32.65
2019-03-20T14:40:47.690Z,32.38
2019-03-20T14:43:20.043Z,31.76
2019-03-20T14:45:53.441Z,32.75
2019-03-20T14:48:27.204Z,33.07
2019-03-20T14:50:59.416Z,33.15
2019-03-20T14:53:31.914Z,33.56
2019-03-20T14:56:05.143Z,33.34
2019-03-20T14:58:38.360Z,33.71
2019-03-20T15:01:11.530Z,34.54
2019-03-20T15:03:44.036Z,33.75
2019-03-20T15:06:16.763Z,34.66
2019-03-20T15:08:49.332Z,34.22
2019-03-20T15:11:21.688Z,34.70
2019-03-20T15:13:53.854Z,34.44
2019-03-20T15:16:26.472Z,35.22
2019-03-20T15:18:58.934Z,35.39
2019-03-20T15:21:43.311Z,35.24
2019-03-20T15:24:15.479Z,35.05
2019-03-20T15:26:47.731Z,35.08
2019-03-20T15:29:19.761Z,34.66
2019-03-20T15:31:59.272Z,34.56
2019-03-20T15:34:31.918Z,35.18
2019-03-20T15:37:13.419Z,35.21
2019-03-20T15:39:45.600Z,34.84
2019-03-20T15:42:23.506Z,34.46
2019-03-20T15:44:55.647Z,34.60
2019-03-20T15:47:34.493Z,34.95
2019-03-20T15:50:09.322Z,35.35
2019-03-20T15:52:44.101Z,35.14
2019-03-20T15:55:28.847Z,35.14
2019-03-20T15:58:01.160Z,35.62
2019-03-20T16:00:34.739Z,35.28
2019-03-20T16:03:12.052Z,34.71
2019-03-20T16:05:43.835Z,34.13
2019-03-20T16:08:16.274Z,33.65
2019-03-20T16:10:48.388Z,33.80
2019-03-20T16:13:25.420Z,33.79
2019-03-20T16:15:58.041Z,33.61
2019-03-20T16:18:30.790Z,34.18
2019-03-20T16:21:03.605Z,35.00
2019-03-20T16:24:04.266Z,34.35
2019-03-20T16:26:38.944Z,34.97
2019-03-20T16:29:11.806Z,34.51
2019-03-20T16:31:44.504Z,34.27
2019-03-20T16:34:17.685Z,34.80
2019-03-20T16:36:57.438Z,35.02
2019-03-20T16:39:29.904Z,35.78
2019-03-20T16:42:03.216Z,35.71
2019-03-20T16:44:35.584Z,35.94
2019-03-20T16:47:08.211Z,35.72
2019-03-20T16:49:40.559Z,36.30
2019-03-20T16:52:12.774Z,36.29
2019-03-20T16:54:45.603Z,36.51
2019-03-20T16:57:19.347Z,36.53
2019-03-20T16:59:51.507Z,36.46
2019-03-20T17:02:25.747Z,36.68
2019-03-20T17:05:06.715Z,37.14
2019-03-20T17:07:39.007Z,37.26
2019-03-20T17:10:24.133Z,37.71
2019-03-20T17:12:56.246Z,37.33
2019-03-20T17:15:29.329Z,37.89
2019-03-20T17:18:01.331Z,38.09
2019-03-20T17:20:37.829Z,38.08
2019-03-20T17:23:10.153Z,38.42
2019-03-20T17:25:45.795Z,38.03
2019-03-20T17:28:18.237Z,38.90
2019-03-20T17:31:00.250Z,38.71
2019-03-20T17:33:32.350Z,38.86
2019-03-20T17:36:10.511Z,38.45
2019-03-20T17:38:42.377Z,38.74
2019-03-20T17:41:17.603Z,38.46
2019-03-20T17:43:50.088Z,38.81
2019-03-20T17:46:32.309Z,39.16
2019-03-20T17:49:04.577Z,39.29
2019-03-20T17:51:40.312Z,40.24
2019-03-20T17:54:12.426Z,39.97
2019-03-20T17:56:51.026Z,40.01
2019-03-20T17:59:25.108Z,40.26
2019-03-20T18:01:57.097Z,40.62
2019-03-20T18:04:29.124Z,40.59
2019-03-20T18:07:07.754Z,40.64
2019-03-20T18:09:40.574Z,41.13
2019-03-20T18:12:16.913Z,41.80
2019-03-20T18:14:50.103Z,42.09
2019-03-20T18:17:29.380Z,42.05
2019-03-20T18:20:04.181Z,42.34
2019-03-20T18:22:40.207Z,42.74
2019-03-20T18:25:16.697Z,42.70
2019-03-20T18:27:49.609Z,42.40
2019-03-20T18:30:26.046Z,42.78
2019-03-20T18:32:59.055Z,43.37
2019-03-20T18:35:31.865Z,43.73
2019-03-20T18:38:04.608Z,43.55
2019-03-20T18:40:41.458Z,43.69
2019-03-20T18:43:15.529Z,44.50
2019-03-20T18:45:52.254Z,44.81
2019-03-20T18:48:24.560Z,44.79
2019-03-20T18:50:57.587Z,44.32
2019-03-20T18:53:29.744Z,44.65
2019-03-20T18:56:03.110Z,44.91
2019-03-20T18:58:35.850Z,45.17
2019-03-20T19:01:10.099Z,46.04
2019-03-20T19:03:45.940Z,46.07
2019-03-20T19:06:24.096Z,45.93
2019-03-20T19:08:56.732Z,46.41
2019-03-20T19:11:29.831Z,46.80
2019-03-20T19:14:07.664Z,47.28
2019-03-20T19:20:32.708Z,47.71
2019-03-20T19:23:05.164Z,47.62
2019-03-20T19:25:38.640Z,48.01
2019-03-20T19:28:11.173Z,47.90
2019-03-20T19:30:43.983Z,47.86
2019-03-20T19:33:16.142Z,48.50
2019-03-20T19:35:49.057Z,47.85
2019-03-20T19:38:22.120Z,48.16
2019-03-20T19:40:55.734Z,48.42
2019-03-20T19:43:29.100Z,49.08
2019-03-20T19:46:01.522Z,48.87
2019-03-20T19:48:36.447Z,49.03
2019-03-20T19:51:10.566Z,49.51
2019-03-20T19:53:43.867Z,49.82
2019-03-20T19:56:17.054Z,50.13
2019-03-20T19:58:50.634Z,50.68
2019-03-20T20:01:23.836Z,50.79
2019-03-20T20:03:56.413Z,50.99
2019-03-20T20:06:30.120Z,51.12
2019-03-20T20:09:02.586Z,51.72
2019-03-20T20:11:37.337Z,51.99
2019-03-20T20:14:09.749Z,51.65
2019-03-20T20:16:43.782Z,51.97
2019-03-20T20:19:18.136Z,52.29
2019-03-20T20:21:57.568Z,52.55
2019-03-20T20:24:30.792Z,52.74
2019-03-20T20:27:07.311Z,52.47
2019-03-20T20:29:42.932Z,52.73
2019-03-20T20:32:15.587Z,53.16
2019-03-20T20:34:48.506Z,53.04
2019-03-20T20:37:20.717Z,53.56
2019-03-20T20:39:53.581Z,53.76
2019-03-20T20:42:26.536Z,53.64
2019-03-20T20:45:00.828Z,53.74
2019-03-20T20:47:33.384Z,54.35
2019-03-20T20:50:07.641Z,54.26
2019-03-20T20:52:41.542Z,54.75
2019-03-20T20:55:19.912Z,55.15
2019-03-20T20:57:52.599Z,55.13
2019-03-20T21:00:25.218Z,55.37
2019-03-20T21:02:58.448Z,55.78
2019-03-20T21:06:01.482Z,55.89
2019-03-20T21:08:34.574Z,56.24
2019-03-20T21:11:08.402Z,56.60
2019-03-20T21:13:40.924Z,57.04
2019-03-20T21:16:14.215Z,57.41
2019-03-20T21:19:40.050Z,57.61
2019-03-20T21:23:28.585Z,57.65
2019-03-20T21:26:03.414Z,57.44
2019-03-20T21:29:39.925Z,57.85
2019-03-20T21:32:42.987Z,57.79
2019-03-20T21:36:19.242Z,58.01
2019-03-20T21:38:51.942Z,58.28
2019-03-20T21:42:18.252Z,58.65
2019-03-20T21:45:44.611Z,58.88
2019-03-20T21:48:18.838Z,59.23
2019-03-20T21:51:27.032Z,60.07
2019-03-20T21:54:59.126Z,60.08
2019-03-20T21:58:18.276Z,60.76
2019-03-20T22:01:38.287Z,61.20
2019-03-20T22:04:11.176Z,61.45
2019-03-20T22:07:10.806Z,61.18
2019-03-20T22:10:40.677Z,61.54
2019-03-20T22:13:49.763Z,61.90
2019-03-20T22:17:31.083Z,61.90
2019-03-20T22:20:59.056Z,61.69
2019-03-20T22:24:29.949Z,61.04
2019-03-20T22:28:06.537Z,60.85
2019-03-20T22:30:39.450Z,60.94
2019-03-20T22:34:04.711Z,60.63
2019-03-20T22:36:42.025Z,60.51
2019-03-20T22:40:30.502Z,59.93
2019-03-20T22:43:30.550Z,59.85
2019-03-20T22:47:07.091Z,59.55
2019-03-20T22:50:33.406Z,59.35
2019-03-20T22:54:28.421Z,59.63
2019-03-20T22:57:28.399Z,59.78
2019-03-20T23:00:01.221Z,60.47
2019-03-20T23:02:49.047Z,60.87
2019-03-20T23:05:21.645Z,60.75
2019-03-20T23:07:54.408Z,60.38
2019-03-20T23:10:27.158Z,60.68
2019-03-20T23:12:59.961Z,60.81
2019-03-20T23:15:32.838Z,60.62
2019-03-20T23:18:06.872Z,60.78
2019-03-20T23:20:39.650Z,60.94
2019-03-20T23:23:12.355Z,61.34
2019-03-20T23:25:45.263Z,61.74
2019-03-20T23:28:18.132Z,62.32
2019-03-20T23:30:50.889Z,62.74
2019-03-20T23:33:23.632Z,62.88
2019-03-20T23:35:56.378Z,63.41
2019-03-20T23:38:29.056Z,63.76
2019-03-20T23:41:02.302Z,64.42
2019-03-20T23:43:35.000Z,64.92
2019-03-20T23:46:07.996Z,65.38
2019-03-20T23:49:01.330Z,65.72
2019-03-20T23:51:34.275Z,66.23
2019-03-20T23:54:06.938Z,66.79
2019-03-20T23:56:40.189Z,66.68
2019-03-20T23:59:12.848Z,66.95
